createdAt,value
2022-09-21T00:43:49.831Z,3.00
2022-09-21T01:34:23.627Z,2.50
2022-09-21T02:24:01.189Z,2.80
2022-09-21T03:25:22.441Z,2.80
2022-09-21T03:28:45.999Z,3.08
2022-09-21T03:44:41.546Z,2.90
2022-09-21T03:54:24.819Z,3.10
2022-09-21T04:14:54.398Z,2.70
2022-09-21T04:24:19.224Z,3.40
2022-09-21T04:27:23.959Z,2.92
2022-09-21T04:30:44.358Z,3.10
2022-09-21T04:36:18.618Z,3.50
2022-09-21T04:39:12.271Z,2.90
2022-09-21T04:41:58.721Z,2.47
2022-09-21T04:45:04.157Z,2.50
2022-09-21T04:55:09.672Z,3.00
2022-09-21T05:17:36.796Z,3.05
2022-09-21T05:23:51.096Z,2.80
2022-09-21T05:26:26.318Z,2.90
2022-09-21T05:28:59.531Z,2.85
2022-09-21T05:32:10.702Z,2.65
2022-09-21T05:38:05.766Z,2.33
2022-09-21T05:41:07.538Z,2.70
2022-09-21T05:46:18.555Z,2.65
2022-09-21T05:49:13.947Z,2.50
2022-09-21T05:52:48.145Z,3.20
2022-09-21T05:55:04.551Z,2.30
2022-09-21T05:57:47.449Z,2.22
2022-09-21T06:00:19.930Z,2.50
2022-09-21T06:03:25.815Z,2.53
2022-09-21T06:05:52.697Z,2.63
2022-09-21T06:08:23.296Z,2.55
2022-09-21T06:10:52.843Z,2.95
2022-09-21T06:13:31.183Z,2.55
2022-09-21T06:16:06.570Z,2.38
2022-09-21T06:18:39.502Z,2.50
2022-09-21T06:21:08.824Z,2.63
2022-09-21T06:23:35.863Z,2.55
2022-09-21T06:26:06.087Z,2.55
2022-09-21T06:28:36.295Z,2.88
2022-09-21T06:31:11.119Z,3.47
2022-09-21T06:33:43.826Z,3.60
2022-09-21T06:36:19.327Z,2.97
2022-09-21T06:38:48.202Z,3.40
2022-09-21T06:41:21.544Z,3.05
2022-09-21T06:43:56.648Z,3.80
2022-09-21T06:46:28.797Z,6.45
2022-09-21T06:48:58.939Z,18.23
2022-09-21T06:51:27.886Z,7.43
2022-09-21T06:54:02.584Z,4.25
2022-09-21T06:56:29.645Z,3.80
2022-09-21T06:59:18.270Z,3.97
2022-09-21T07:01:51.867Z,3.65
2022-09-21T07:04:29.402Z,4.93
2022-09-21T07:07:04.557Z,4.28
2022-09-21T07:12:40.947Z,4.00
2022-09-21T07:15:13.853Z,3.72
2022-09-21T07:17:43.837Z,3.88
2022-09-21T07:20:13.880Z,3.90
2022-09-21T07:22:47.357Z,3.70
2022-09-21T07:25:18.787Z,3.60
2022-09-21T07:27:56.234Z,4.72
2022-09-21T07:30:29.712Z,4.35
2022-09-21T07:32:56.917Z,4.60
2022-09-21T07:35:26.516Z,3.70
2022-09-21T07:37:53.442Z,3.90
2022-09-21T07:40:24.865Z,4.47
2022-09-21T07:43:09.070Z,4.10
2022-09-21T07:45:37.329Z,4.47
2022-09-21T07:48:08.549Z,3.65
2022-09-21T07:50:39.651Z,3.90
2022-09-21T07:53:09.240Z,3.10
2022-09-21T07:55:41.064Z,2.53
2022-09-21T07:58:08.031Z,2.95
2022-09-21T08:00:48.950Z,2.50
2022-09-21T08:03:28.966Z,3.35
2022-09-21T08:06:06.241Z,2.80
2022-09-21T08:08:39.277Z,2.42
2022-09-21T08:11:10.177Z,1.80
2022-09-21T08:13:37.530Z,2.17
2022-09-21T08:16:10.289Z,2.10
2022-09-21T08:18:41.943Z,2.20
2022-09-21T08:21:22.062Z,1.50
2022-09-21T08:24:04.692Z,1.67
2022-09-21T08:27:04.672Z,1.58
2022-09-21T08:29:33.964Z,1.77
2022-09-21T08:32:22.830Z,1.80
2022-09-21T08:37:46.039Z,1.17
2022-09-21T08:40:34.031Z,1.50
2022-09-21T08:43:15.986Z,1.27
2022-09-21T08:45:48.287Z,1.27
2022-09-21T08:48:36.521Z,0.77
2022-09-21T08:51:12.277Z,0.90
2022-09-21T08:53:55.621Z,1.20
2022-09-21T08:56:53.330Z,0.70
2022-09-21T08:59:20.858Z,1.15
2022-09-21T09:02:04.974Z,0.77
2022-09-21T09:04:56.717Z,0.80
2022-09-21T09:10:26.441Z,0.63
2022-09-21T09:13:31.678Z,0.90
2022-09-21T09:16:17.604Z,1.00
2022-09-21T09:19:03.168Z,1.50
2022-09-21T09:21:51.204Z,0.82
2022-09-21T09:24:47.814Z,0.90
2022-09-21T09:27:27.401Z,0.65
2022-09-21T09:30:07.038Z,0.70
2022-09-21T09:33:03.724Z,0.98
2022-09-21T09:36:40.187Z,0.82
2022-09-21T09:39:45.665Z,1.00
2022-09-21T09:43:05.418Z,1.55
2022-09-21T09:46:31.739Z,0.85
2022-09-21T09:52:39.787Z,0.75
2022-09-21T09:55:27.811Z,0.93
2022-09-21T09:58:39.039Z,0.57
2022-09-21T10:01:42.974Z,0.70
2022-09-21T10:04:23.440Z,0.85
2022-09-21T10:08:55.250Z,0.60
2022-09-21T10:10:53.032Z,0.80
2022-09-21T10:16:49.847Z,0.80
2022-09-21T10:19:33.211Z,0.60
2022-09-21T10:22:26.718Z,0.90
2022-09-21T10:28:09.229Z,0.70
2022-09-21T10:31:13.499Z,0.88
2022-09-21T10:34:37.553Z,0.80
2022-09-21T10:41:08.646Z,0.80
2022-09-21T10:43:49.888Z,3.17
2022-09-21T10:49:57.514Z,1.80
2022-09-21T10:56:04.775Z,0.90
2022-09-21T10:59:49.581Z,0.65
2022-09-21T11:03:05.662Z,0.75
2022-09-21T11:06:00.523Z,0.63
2022-09-21T11:15:52.281Z,0.65
2022-09-21T11:18:16.241Z,0.93
2022-09-21T11:27:13.204Z,1.30
2022-09-21T12:00:33.452Z,1.80
2022-09-21T12:03:35.990Z,0.75
2022-09-21T12:13:26.359Z,0.60
2022-09-21T12:19:34.434Z,0.65
2022-09-21T12:22:44.957Z,0.77
2022-09-21T12:25:32.951Z,1.15
2022-09-21T12:28:20.089Z,0.40
2022-09-21T12:31:06.881Z,2.10
2022-09-21T12:37:41.550Z,1.23
2022-09-21T12:40:41.951Z,0.70
2022-09-21T12:43:46.240Z,0.60
2022-09-21T12:46:47.306Z,0.70
2022-09-21T12:52:37.875Z,0.98
2022-09-21T12:55:48.157Z,0.60
2022-09-21T12:58:45.360Z,0.93
2022-09-21T13:01:42.585Z,0.60
2022-09-21T13:08:01.561Z,0.68
2022-09-21T13:11:13.024Z,0.60
2022-09-21T13:20:37.599Z,0.60
2022-09-21T13:26:57.993Z,0.80
2022-09-21T13:30:00.782Z,0.57
2022-09-21T13:36:32.868Z,0.45
2022-09-21T13:49:04.855Z,0.60
2022-09-21T13:52:16.971Z,1.00
2022-09-21T13:55:01.134Z,0.80
2022-09-21T13:58:03.882Z,0.73
2022-09-21T14:01:03.161Z,0.90
2022-09-21T14:04:12.469Z,0.65
2022-09-21T14:10:18.203Z,0.75
2022-09-21T14:19:59.412Z,0.40
2022-09-21T14:33:27.625Z,0.55
2022-09-21T14:36:18.855Z,0.50
2022-09-21T14:56:20.029Z,0.60
2022-09-21T14:59:15.732Z,0.70
2022-09-21T15:06:08.855Z,0.82
2022-09-21T15:09:20.161Z,0.65
2022-09-21T15:12:31.645Z,0.88
2022-09-21T15:18:27.426Z,1.20
2022-09-21T15:31:29.661Z,0.80
2022-09-21T15:37:15.486Z,0.90
2022-09-21T15:39:42.471Z,0.70
2022-09-21T15:42:24.979Z,0.57
2022-09-21T15:45:10.434Z,0.68
2022-09-21T15:47:38.275Z,0.63
2022-09-21T15:50:05.749Z,0.50
2022-09-21T15:52:37.618Z,0.50
2022-09-21T15:55:11.962Z,0.85
2022-09-21T15:57:41.428Z,0.75
2022-09-21T16:00:24.380Z,0.57
2022-09-21T16:03:01.698Z,0.68
2022-09-21T16:05:31.111Z,0.80
2022-09-21T16:08:06.441Z,0.90
2022-09-21T16:10:39.272Z,0.57
2022-09-21T16:13:15.448Z,0.80
2022-09-21T16:16:00.986Z,1.20
2022-09-21T16:18:39.757Z,0.60
2022-09-21T16:21:16.059Z,0.90
2022-09-21T16:23:43.224Z,0.80
2022-09-21T16:26:19.051Z,1.00
2022-09-21T16:28:46.442Z,1.00
2022-09-21T16:31:35.157Z,0.73
2022-09-21T16:34:05.241Z,0.88
2022-09-21T16:36:40.415Z,1.17
2022-09-21T16:39:15.711Z,0.70
2022-09-21T16:41:53.053Z,0.68
2022-09-21T16:44:22.655Z,1.10
2022-09-21T16:46:55.945Z,0.80
2022-09-21T17:13:24.489Z,1.73
2022-09-21T17:15:58.445Z,1.13
2022-09-21T17:18:25.729Z,1.30
2022-09-21T17:20:53.878Z,1.17
2022-09-21T17:23:23.321Z,0.90
2022-09-21T17:25:50.679Z,1.05
2022-09-21T17:28:22.739Z,0.95
2022-09-21T17:30:51.454Z,1.10
2022-09-21T17:33:18.947Z,1.40
2022-09-21T17:36:31.368Z,1.30
2022-09-21T17:39:12.257Z,1.25
2022-09-21T17:58:32.237Z,1.30
2022-09-21T18:01:05.285Z,1.70
2022-09-21T18:03:34.809Z,2.08
2022-09-21T18:06:04.910Z,1.70
2022-09-21T18:08:44.426Z,1.70
2022-09-21T18:11:29.176Z,3.35
2022-09-21T18:14:11.059Z,4.40
2022-09-21T18:16:45.761Z,11.02
2022-09-21T18:19:36.983Z,5.70
2022-09-21T18:22:14.137Z,8.93
2022-09-21T18:24:42.497Z,16.55
2022-09-21T18:27:13.888Z,12.30
2022-09-21T18:29:43.730Z,8.73
2022-09-21T18:32:27.813Z,5.25
2022-09-21T18:35:16.633Z,2.17
2022-09-21T18:37:54.334Z,4.80
2022-09-21T18:40:28.363Z,5.45
2022-09-21T18:43:04.736Z,5.88
2022-09-21T18:45:40.546Z,6.32
2022-09-21T18:48:19.660Z,7.85
2022-09-21T18:50:54.690Z,8.93
2022-09-21T18:53:31.378Z,8.55
2022-09-21T18:55:58.712Z,6.90
2022-09-21T18:58:26.291Z,5.25
2022-09-21T19:00:57.367Z,5.97
2022-09-21T19:03:28.880Z,5.00
2022-09-21T19:06:12.487Z,4.18
2022-09-21T19:08:44.828Z,4.63
2022-09-21T19:11:21.870Z,4.22
2022-09-21T19:13:56.502Z,5.43
2022-09-21T19:16:37.073Z,4.00
2022-09-21T19:19:16.852Z,4.38
2022-09-21T19:21:50.482Z,4.10
2022-09-21T19:24:24.600Z,4.20
2022-09-21T19:27:14.394Z,4.53
2022-09-21T19:29:51.243Z,3.63
2022-09-21T19:32:30.169Z,4.45
2022-09-21T19:35:11.677Z,4.47
2022-09-21T19:37:39.461Z,3.63
2022-09-21T19:40:10.684Z,3.28
2022-09-21T19:42:46.637Z,3.75
2022-09-21T19:45:22.447Z,4.20
2022-09-21T19:48:03.676Z,4.30
2022-09-21T19:50:40.799Z,3.83
2022-09-21T19:53:11.282Z,4.30
2022-09-21T19:55:43.549Z,3.17
2022-09-21T19:58:11.253Z,3.58
2022-09-21T20:00:48.266Z,3.85
2022-09-21T20:03:25.227Z,3.70
2022-09-21T20:06:12.242Z,3.28
2022-09-21T20:08:45.915Z,3.20
2022-09-21T20:11:19.017Z,3.03
2022-09-21T20:14:00.357Z,3.05
2022-09-21T20:16:38.366Z,2.90
2022-09-21T20:19:17.751Z,3.45
2022-09-21T20:21:45.726Z,3.45
2022-09-21T20:24:21.124Z,2.92
2022-09-21T20:26:51.015Z,3.47
2022-09-21T20:29:19.163Z,3.65
2022-09-21T20:31:46.909Z,2.92
2022-09-21T20:34:16.090Z,3.90
2022-09-21T20:36:43.215Z,3.75
2022-09-21T20:39:14.726Z,3.50
2022-09-21T20:44:12.271Z,3.60
2022-09-21T20:46:39.019Z,3.65
2022-09-21T20:49:06.171Z,3.75
2022-09-21T20:51:36.421Z,3.95
2022-09-21T20:54:03.885Z,3.45
2022-09-21T20:56:33.513Z,4.10
2022-09-21T20:59:00.272Z,4.28
2022-09-21T21:01:27.010Z,3.83
2022-09-21T21:03:55.833Z,3.55
2022-09-21T21:06:24.736Z,4.40
2022-09-21T21:08:55.840Z,4.40
2022-09-21T21:11:22.965Z,4.20
2022-09-21T21:13:49.660Z,3.83
2022-09-21T21:16:16.326Z,4.05
2022-09-21T21:18:43.258Z,4.20
2022-09-21T21:21:10.220Z,3.97
2022-09-21T21:23:36.945Z,3.10
2022-09-21T21:26:05.977Z,3.58
2022-09-21T21:28:33.991Z,3.35
2022-09-21T21:31:06.455Z,3.65
2022-09-21T21:33:33.205Z,3.17
2022-09-21T21:36:04.347Z,3.63
2022-09-21T21:38:31.060Z,3.58
2022-09-21T21:40:57.926Z,4.07
2022-09-21T21:43:32.746Z,3.35
2022-09-21T21:46:02.500Z,3.40
2022-09-21T21:48:30.966Z,3.63
2022-09-21T21:51:01.717Z,3.10
2022-09-21T21:53:31.976Z,3.63
2022-09-21T21:56:03.624Z,4.80
2022-09-21T21:58:32.312Z,4.75
2022-09-21T22:01:07.407Z,4.38
2022-09-21T22:03:34.267Z,4.00
2022-09-21T22:06:03.031Z,4.10
2022-09-21T22:08:30.375Z,4.97
2022-09-21T22:10:57.123Z,5.85
2022-09-21T22:13:26.608Z,7.25
2022-09-21T22:15:54.735Z,6.68
2022-09-21T22:18:21.659Z,6.95
2022-09-21T22:20:48.449Z,5.80
2022-09-21T22:23:15.422Z,4.80
2022-09-21T22:25:42.103Z,4.75
2022-09-21T22:28:08.826Z,4.20
2022-09-21T22:30:35.502Z,3.90
2022-09-21T22:33:03.799Z,3.92
2022-09-21T22:35:32.475Z,4.70
2022-09-21T22:37:59.218Z,4.80
2022-09-21T22:40:25.981Z,3.88
2022-09-21T22:42:52.980Z,4.07
2022-09-21T22:45:19.643Z,4.20
2022-09-21T22:47:46.593Z,3.95
2022-09-21T22:50:14.971Z,3.38
2022-09-21T22:52:41.647Z,3.60
2022-09-21T22:55:10.266Z,3.70
2022-09-21T22:57:36.975Z,3.65
2022-09-21T23:00:04.883Z,3.60
2022-09-21T23:02:31.493Z,3.40
2022-09-21T23:04:58.142Z,4.13
2022-09-21T23:07:26.629Z,3.42
2022-09-21T23:09:53.398Z,3.58
2022-09-21T23:12:20.084Z,4.03
2022-09-21T23:14:47.002Z,3.90
2022-09-21T23:17:14.915Z,4.00
2022-09-21T23:19:41.563Z,3.25
2022-09-21T23:22:09.034Z,3.53
2022-09-21T23:24:37.089Z,3.55
2022-09-21T23:27:04.076Z,3.53
2022-09-21T23:29:31.211Z,3.83
2022-09-21T23:31:57.932Z,3.50
2022-09-21T23:34:24.855Z,4.32
2022-09-21T23:36:51.520Z,4.00
2022-09-21T23:39:18.167Z,4.65
2022-09-21T23:41:46.260Z,4.07
2022-09-21T23:44:12.958Z,3.97
2022-09-21T23:46:43.002Z,4.55
2022-09-21T23:49:12.508Z,4.57
2022-09-21T23:51:40.124Z,4.20
2022-09-21T23:54:07.283Z,4.07
2022-09-21T23:56:35.041Z,4.03
2022-09-21T23:59:03.986Z,4.50
